createdAt,value
2022-11-16T00:01:00.204Z,54.79
2022-11-16T00:03:31.202Z,55.24
2022-11-16T00:06:00.642Z,54.90
2022-11-16T00:08:30.807Z,54.67
2022-11-16T00:11:06.069Z,54.86
2022-11-16T00:13:34.703Z,54.79
2022-11-16T00:16:03.476Z,54.72
2022-11-16T00:18:34.056Z,54.77
2022-11-16T00:21:05.369Z,54.48
2022-11-16T00:23:35.987Z,55.01
2022-11-16T00:26:05.856Z,54.79
2022-11-16T00:28:34.866Z,54.91
2022-11-16T00:31:05.641Z,54.73
2022-11-16T00:33:36.068Z,54.95
2022-11-16T00:36:05.879Z,54.75
2022-11-16T00:38:34.907Z,54.88
2022-11-16T00:41:03.772Z,54.67
2022-11-16T00:43:32.369Z,54.66
2022-11-16T00:46:00.908Z,54.84
2022-11-16T00:48:29.825Z,54.70
2022-11-16T00:50:59.991Z,54.89
2022-11-16T00:53:28.537Z,54.90
2022-11-16T00:55:57.095Z,54.58
2022-11-16T00:58:26.079Z,54.77
2022-11-16T01:01:06.291Z,54.75
2022-11-16T01:03:35.148Z,54.98
2022-11-16T01:06:06.797Z,54.76
2022-11-16T01:08:37.107Z,54.55
2022-11-16T01:11:20.061Z,54.58
2022-11-16T01:13:48.951Z,54.71
2022-11-16T01:16:18.175Z,54.55
2022-11-16T01:18:49.091Z,54.93
2022-11-16T01:21:19.412Z,54.73
2022-11-16T01:23:47.911Z,55.18
2022-11-16T01:26:16.477Z,54.88
2022-11-16T01:28:45.615Z,55.16
2022-11-16T01:31:15.019Z,54.84
2022-11-16T01:33:44.004Z,54.88
2022-11-16T01:36:22.815Z,54.92
2022-11-16T01:38:51.401Z,54.64
2022-11-16T01:41:24.071Z,54.62
2022-11-16T01:43:59.195Z,54.43
2022-11-16T01:46:32.785Z,54.60
2022-11-16T01:49:17.932Z,54.60
2022-11-16T01:51:52.833Z,54.64
2022-11-16T01:54:21.415Z,54.57
2022-11-16T01:56:57.650Z,54.94
2022-11-16T01:59:34.009Z,54.81
2022-11-16T02:02:03.060Z,54.87
2022-11-16T02:04:32.845Z,54.60
2022-11-16T02:07:08.194Z,54.82
2022-11-16T02:09:54.274Z,54.73
2022-11-16T02:13:11.476Z,54.94
2022-11-16T02:15:48.696Z,54.74
2022-11-16T02:18:26.062Z,54.42
2022-11-16T02:21:06.309Z,54.64
2022-11-16T02:24:11.161Z,54.68
2022-11-16T02:27:05.822Z,54.83
2022-11-16T02:29:37.443Z,54.40
2022-11-16T02:32:10.103Z,54.78
2022-11-16T02:34:42.661Z,54.78
2022-11-16T02:37:12.551Z,54.53
2022-11-16T02:39:42.361Z,54.71
2022-11-16T02:42:13.738Z,55.04
2022-11-16T02:44:46.380Z,54.56
2022-11-16T02:47:19.295Z,54.30
2022-11-16T02:49:54.028Z,54.27
2022-11-16T02:52:24.445Z,54.93
2022-11-16T02:54:53.069Z,54.95
2022-11-16T02:57:40.282Z,54.96
2022-11-16T03:00:19.689Z,54.88
2022-11-16T03:02:55.221Z,54.86
2022-11-16T03:05:32.175Z,54.95
2022-11-16T03:08:17.871Z,54.46
2022-11-16T03:11:08.108Z,54.53
2022-11-16T03:13:37.908Z,54.53
2022-11-16T03:16:10.862Z,54.82
2022-11-16T03:18:41.586Z,54.88
2022-11-16T03:21:17.278Z,54.59
2022-11-16T03:23:46.630Z,54.75
2022-11-16T03:26:18.337Z,54.68
2022-11-16T03:28:53.434Z,54.65
2022-11-16T03:31:28.253Z,54.41
2022-11-16T03:33:58.809Z,54.52
2022-11-16T03:36:29.509Z,54.39
2022-11-16T03:39:02.697Z,54.69
2022-11-16T03:41:34.925Z,54.41
2022-11-16T03:44:04.067Z,54.55
2022-11-16T03:46:34.130Z,54.32
2022-11-16T03:49:02.992Z,54.37
2022-11-16T03:51:37.142Z,54.78
2022-11-16T03:54:05.944Z,54.81
2022-11-16T03:56:35.863Z,54.72
2022-11-16T03:59:04.723Z,54.36
2022-11-16T04:01:34.818Z,54.34
2022-11-16T04:04:03.991Z,54.52
2022-11-16T04:06:55.504Z,54.73
2022-11-16T04:09:41.717Z,54.38
2022-11-16T04:12:28.239Z,54.77
2022-11-16T04:15:28.701Z,54.70
2022-11-16T04:18:16.083Z,54.35
2022-11-16T04:21:03.076Z,54.50
2022-11-16T04:23:49.045Z,54.74
2022-11-16T04:26:17.650Z,54.76
2022-11-16T04:28:45.201Z,54.37
2022-11-16T04:31:31.019Z,54.34
2022-11-16T04:34:23.244Z,54.45
2022-11-16T04:37:12.239Z,54.64
2022-11-16T04:39:42.175Z,54.51
2022-11-16T04:42:15.642Z,54.69
2022-11-16T04:45:03.825Z,54.27
2022-11-16T04:47:38.519Z,54.45
2022-11-16T04:50:09.241Z,54.65
2022-11-16T04:52:37.781Z,54.42
2022-11-16T04:55:08.643Z,54.64
2022-11-16T04:57:37.236Z,54.54
2022-11-16T05:00:08.173Z,54.81
2022-11-16T05:02:39.015Z,54.62
2022-11-16T05:05:10.388Z,54.83
2022-11-16T05:07:42.325Z,54.64
2022-11-16T05:10:17.337Z,54.47
2022-11-16T05:12:46.221Z,54.91
2022-11-16T05:15:17.542Z,54.43
2022-11-16T05:17:47.303Z,54.65
2022-11-16T05:20:39.562Z,54.61
2022-11-16T05:23:29.608Z,54.42
2022-11-16T05:26:02.200Z,54.56
2022-11-16T05:28:30.922Z,54.53
2022-11-16T05:31:00.090Z,54.48
2022-11-16T05:33:30.729Z,54.65
2022-11-16T05:36:01.039Z,54.61
2022-11-16T05:38:29.544Z,54.72
2022-11-16T05:41:00.729Z,54.68
2022-11-16T05:43:30.625Z,54.70
2022-11-16T05:46:09.406Z,54.56
2022-11-16T05:48:38.431Z,54.58
2022-11-16T05:51:09.358Z,54.55
2022-11-16T05:53:37.942Z,54.50
2022-11-16T05:56:08.246Z,54.76
2022-11-16T05:58:40.280Z,54.36
2022-11-16T06:01:08.887Z,54.36
2022-11-16T06:03:37.976Z,54.89
2022-11-16T06:06:06.869Z,54.71
2022-11-16T06:08:38.101Z,54.22
2022-11-16T06:11:11.772Z,54.42
2022-11-16T06:13:41.090Z,54.44
2022-11-16T06:16:10.298Z,54.31
2022-11-16T06:18:39.941Z,54.09
2022-11-16T06:21:10.013Z,54.65
2022-11-16T06:23:39.960Z,54.44
2022-11-16T06:26:09.284Z,54.53
2022-11-16T06:28:39.587Z,54.60
2022-11-16T06:31:08.180Z,54.15
2022-11-16T06:33:41.784Z,54.47
2022-11-16T06:36:17.499Z,54.77
2022-11-16T06:38:47.565Z,54.19
2022-11-16T06:41:16.600Z,54.12
2022-11-16T06:43:49.337Z,54.68
2022-11-16T06:46:21.145Z,54.43
2022-11-16T06:48:50.090Z,54.54
2022-11-16T06:51:19.706Z,54.54
2022-11-16T06:53:50.894Z,54.77
2022-11-16T06:56:21.072Z,54.56
2022-11-16T06:58:57.020Z,54.26
2022-11-16T07:01:27.413Z,54.75
2022-11-16T07:04:01.637Z,54.62
2022-11-16T07:06:31.121Z,54.37
2022-11-16T07:09:03.423Z,54.21
2022-11-16T07:11:35.105Z,54.67
2022-11-16T07:14:04.246Z,54.36
2022-11-16T07:16:32.994Z,54.55
2022-11-16T07:19:05.316Z,54.75
2022-11-16T07:21:35.942Z,54.19
2022-11-16T07:24:09.779Z,54.13
2022-11-16T07:26:38.322Z,54.63
2022-11-16T07:29:11.423Z,54.31
2022-11-16T07:31:44.550Z,54.56
2022-11-16T07:34:28.923Z,54.69
2022-11-16T07:37:09.163Z,54.16
2022-11-16T07:39:39.086Z,54.33
2022-11-16T07:42:11.890Z,54.76
2022-11-16T07:44:53.713Z,54.56
2022-11-16T07:47:22.216Z,54.57
2022-11-16T07:49:51.638Z,54.07
2022-11-16T07:52:22.621Z,54.36
2022-11-16T07:54:58.941Z,54.27
2022-11-16T07:57:29.661Z,54.35
2022-11-16T08:00:01.634Z,54.14
2022-11-16T08:02:41.987Z,54.37
2022-11-16T08:05:17.775Z,54.50
2022-11-16T08:07:47.001Z,54.16
2022-11-16T08:10:17.217Z,54.17
2022-11-16T08:12:45.909Z,54.34
2022-11-16T08:15:15.114Z,54.51
2022-11-16T08:17:44.484Z,54.58
2022-11-16T08:20:14.553Z,54.49
2022-11-16T08:22:45.138Z,54.55
2022-11-16T08:25:13.939Z,54.18
2022-11-16T08:27:47.701Z,54.76
2022-11-16T08:30:18.668Z,54.57
2022-11-16T08:32:47.368Z,54.17
2022-11-16T08:35:17.377Z,54.48
2022-11-16T08:37:47.106Z,54.63
2022-11-16T08:40:17.082Z,54.68
2022-11-16T08:42:47.330Z,54.48
2022-11-16T08:45:17.773Z,54.32
2022-11-16T08:47:46.787Z,54.32
2022-11-16T08:50:16.024Z,54.23
2022-11-16T08:52:45.231Z,54.02
2022-11-16T08:55:13.948Z,54.12
2022-11-16T08:57:43.773Z,54.15
2022-11-16T09:00:16.355Z,54.54
2022-11-16T09:02:45.433Z,54.20
2022-11-16T09:05:14.170Z,54.22
2022-11-16T09:07:44.123Z,54.69
2022-11-16T09:10:13.316Z,54.48
2022-11-16T09:12:41.886Z,54.72
2022-11-16T09:15:11.177Z,54.25
2022-11-16T09:17:41.279Z,54.42
2022-11-16T09:20:10.327Z,54.48
2022-11-16T09:22:38.872Z,54.74
2022-11-16T09:25:09.398Z,54.25
2022-11-16T09:27:38.608Z,54.18
2022-11-16T09:30:08.988Z,54.21
2022-11-16T09:32:37.515Z,54.61
2022-11-16T09:35:08.138Z,54.54
2022-11-16T09:37:36.632Z,54.44
2022-11-16T09:40:06.276Z,54.26
2022-11-16T09:42:45.871Z,54.24
2022-11-16T09:45:17.901Z,54.22
2022-11-16T09:47:50.090Z,54.21
2022-11-16T09:50:32.577Z,54.49
2022-11-16T09:53:08.267Z,54.34
2022-11-16T09:55:40.799Z,54.23
2022-11-16T09:58:14.250Z,54.66
2022-11-16T10:00:45.459Z,54.47
2022-11-16T10:03:15.873Z,54.39
2022-11-16T10:05:50.118Z,54.49
2022-11-16T10:08:23.119Z,54.48
2022-11-16T10:11:05.372Z,54.47
2022-11-16T10:13:43.337Z,54.74
2022-11-16T10:16:17.585Z,54.23
2022-11-16T10:18:55.166Z,54.32
2022-11-16T10:21:40.816Z,54.15
2022-11-16T10:24:32.180Z,54.58
2022-11-16T10:27:09.252Z,54.63
2022-11-16T10:29:48.116Z,54.27
2022-11-16T10:32:26.197Z,54.68
2022-11-16T10:34:56.083Z,54.11
2022-11-16T10:37:30.308Z,54.23
2022-11-16T10:39:59.307Z,54.21
2022-11-16T10:42:32.332Z,54.50
2022-11-16T10:45:05.520Z,54.27
2022-11-16T10:47:41.779Z,54.28
2022-11-16T10:50:23.202Z,54.53
2022-11-16T10:52:53.176Z,54.32
2022-11-16T10:55:22.948Z,54.55
2022-11-16T10:57:56.341Z,54.09
2022-11-16T11:00:43.731Z,54.22
2022-11-16T11:03:12.408Z,54.34
2022-11-16T11:05:49.641Z,54.51
2022-11-16T11:08:30.381Z,54.44
2022-11-16T11:11:03.218Z,54.54
2022-11-16T11:13:34.656Z,54.66
2022-11-16T11:16:16.542Z,54.01
2022-11-16T11:18:45.094Z,54.65
2022-11-16T11:21:18.943Z,54.25
2022-11-16T11:23:51.916Z,54.26
2022-11-16T11:26:35.928Z,54.50
2022-11-16T11:29:16.968Z,54.75
2022-11-16T11:31:47.305Z,54.45
2022-11-16T11:34:18.777Z,54.60
2022-11-16T11:36:49.602Z,54.35
2022-11-16T11:39:33.813Z,54.51
2022-11-16T11:42:09.792Z,54.18
2022-11-16T11:44:44.664Z,54.73
2022-11-16T11:47:56.180Z,55.53
2022-11-16T11:50:22.301Z,55.71
2022-11-16T11:53:03.586Z,55.55
2022-11-16T11:55:33.717Z,55.20
2022-11-16T11:58:03.497Z,55.26
2022-11-16T12:00:39.271Z,54.93
2022-11-16T12:03:27.082Z,54.75
2022-11-16T12:06:04.495Z,55.21
2022-11-16T12:08:45.979Z,54.54
2022-11-16T12:11:23.270Z,54.91
2022-11-16T12:14:01.989Z,54.42
2022-11-16T12:16:35.472Z,54.77
2022-11-16T12:19:26.728Z,54.94
2022-11-16T12:22:04.364Z,55.12
2022-11-16T12:24:47.231Z,55.23
2022-11-16T12:27:27.020Z,54.80
2022-11-16T12:30:02.939Z,54.81
2022-11-16T12:32:44.727Z,55.23
2022-11-16T12:35:22.928Z,55.06
2022-11-16T12:37:55.759Z,54.72
2022-11-16T12:40:33.143Z,55.29
2022-11-16T12:43:07.237Z,55.18
2022-11-16T12:45:55.167Z,55.07
2022-11-16T12:48:45.832Z,54.79
2022-11-16T12:51:24.368Z,55.17
2022-11-16T12:54:23.942Z,54.72
2022-11-16T12:56:56.461Z,54.68
2022-11-16T12:59:34.853Z,55.03
2022-11-16T13:02:12.232Z,55.04
2022-11-16T13:04:45.651Z,54.72
2022-11-16T13:07:18.174Z,54.94
2022-11-16T13:09:49.763Z,55.00
2022-11-16T13:12:20.596Z,55.16
2022-11-16T13:14:52.812Z,55.10
2022-11-16T13:17:23.309Z,54.85
2022-11-16T13:20:07.934Z,54.54
2022-11-16T13:22:41.197Z,55.25
2022-11-16T13:25:16.518Z,55.08
2022-11-16T13:27:49.423Z,55.18
2022-11-16T13:30:21.329Z,54.82
2022-11-16T13:33:13.673Z,54.81
2022-11-16T13:35:43.157Z,55.01
2022-11-16T13:38:13.443Z,55.28
2022-11-16T13:40:42.513Z,54.83
2022-11-16T13:43:19.212Z,54.78
2022-11-16T13:46:00.151Z,54.74
2022-11-16T13:48:32.996Z,54.84
2022-11-16T13:51:03.221Z,54.91
2022-11-16T13:56:27.365Z,54.97
2022-11-16T13:58:58.563Z,55.49
2022-11-16T14:01:55.377Z,55.03
2022-11-16T14:04:42.811Z,54.68
2022-11-16T14:07:35.085Z,55.11
2022-11-16T14:10:05.837Z,55.04
2022-11-16T14:12:58.522Z,55.08
2022-11-16T14:15:32.360Z,54.96
2022-11-16T14:18:04.832Z,55.01
2022-11-16T14:20:46.223Z,54.96
2022-11-16T14:23:28.455Z,54.70
2022-11-16T14:26:05.331Z,54.77
2022-11-16T14:28:44.348Z,55.11
2022-11-16T14:31:19.577Z,55.29
2022-11-16T14:33:52.833Z,55.22
2022-11-16T14:36:38.422Z,55.05
2022-11-16T14:39:38.258Z,55.29
2022-11-16T14:42:12.741Z,54.87
2022-11-16T14:44:41.626Z,55.29
2022-11-16T14:47:21.991Z,55.52
2022-11-16T14:49:53.986Z,55.12
2022-11-16T14:52:28.161Z,55.60
2022-11-16T14:55:00.181Z,55.24
2022-11-16T14:57:28.741Z,55.07
2022-11-16T15:00:18.936Z,55.54
2022-11-16T15:02:51.688Z,55.69
2022-11-16T15:05:24.636Z,55.40
2022-11-16T15:07:54.427Z,55.33
2022-11-16T15:10:24.897Z,55.26
2022-11-16T15:12:55.148Z,55.31
2022-11-16T15:15:25.278Z,55.74
2022-11-16T15:18:07.180Z,55.61
2022-11-16T15:20:39.247Z,55.11
2022-11-16T15:23:15.012Z,55.53
2022-11-16T15:25:45.488Z,55.30
2022-11-16T15:28:18.788Z,55.78
2022-11-16T15:30:50.740Z,55.20
2022-11-16T15:33:21.521Z,55.72
2022-11-16T15:35:51.654Z,55.62
2022-11-16T15:38:22.519Z,55.62
2022-11-16T15:40:53.030Z,55.56
2022-11-16T15:43:29.199Z,55.45
2022-11-16T15:45:58.426Z,55.41
2022-11-16T15:48:28.131Z,55.20
2022-11-16T15:51:06.303Z,55.78
2022-11-16T15:53:37.426Z,55.50
2022-11-16T15:56:07.642Z,55.17
2022-11-16T15:58:39.183Z,55.16
2022-11-16T16:01:08.088Z,55.72
2022-11-16T16:03:37.738Z,55.40
2022-11-16T16:06:09.421Z,55.70
2022-11-16T16:08:40.741Z,55.67
2022-11-16T16:11:14.398Z,55.50
2022-11-16T16:13:45.314Z,55.63
2022-11-16T16:16:26.209Z,55.81
2022-11-16T16:18:57.014Z,55.64
2022-11-16T16:21:27.753Z,55.82
2022-11-16T16:23:57.517Z,55.27
2022-11-16T16:26:26.087Z,55.52
2022-11-16T16:28:54.667Z,55.69
2022-11-16T16:31:23.223Z,55.51
2022-11-16T16:33:52.066Z,55.40
2022-11-16T16:36:20.658Z,55.59
2022-11-16T16:38:50.619Z,55.80
2022-11-16T16:41:24.253Z,55.64
2022-11-16T16:43:53.445Z,55.55
2022-11-16T16:46:22.260Z,55.45
2022-11-16T16:48:50.737Z,55.68
2022-11-16T16:51:19.405Z,55.66
2022-11-16T16:53:50.153Z,55.45
2022-11-16T16:56:19.978Z,55.50
2022-11-16T16:58:48.752Z,55.51
2022-11-16T17:01:17.544Z,55.41
2022-11-16T17:03:46.943Z,55.39
2022-11-16T17:06:16.327Z,55.50
2022-11-16T17:08:44.875Z,55.86
2022-11-16T17:11:16.004Z,55.64
2022-11-16T17:13:44.865Z,55.54
2022-11-16T17:16:13.490Z,55.55
2022-11-16T17:18:42.179Z,55.58
2022-11-16T17:21:10.975Z,55.39
2022-11-16T17:23:40.065Z,55.49
2022-11-16T17:26:10.183Z,55.73
2022-11-16T17:28:40.235Z,55.75
2022-11-16T17:31:10.550Z,55.56
2022-11-16T17:33:40.985Z,55.76
2022-11-16T17:36:12.296Z,55.87
2022-11-16T17:38:41.787Z,55.49
2022-11-16T17:41:12.654Z,55.50
2022-11-16T17:43:43.991Z,55.30
2022-11-16T17:46:13.908Z,55.66
2022-11-16T17:48:44.264Z,55.97
2022-11-16T17:51:14.300Z,55.58
2022-11-16T17:53:44.224Z,55.51
2022-11-16T17:56:14.857Z,55.71
2022-11-16T17:58:45.128Z,55.33
2022-11-16T18:01:14.561Z,55.72
2022-11-16T18:03:43.359Z,55.87
2022-11-16T18:06:14.313Z,55.50
2022-11-16T18:08:44.446Z,55.61
2022-11-16T18:11:14.680Z,55.60
2022-11-16T18:13:45.332Z,55.40
2022-11-16T18:16:42.581Z,55.74
2022-11-16T18:19:20.336Z,55.73
2022-11-16T18:21:49.186Z,55.39
2022-11-16T18:24:17.959Z,55.52
2022-11-16T18:26:46.706Z,55.62
2022-11-16T18:29:19.190Z,55.82
2022-11-16T18:31:47.894Z,55.75
2022-11-16T18:34:16.830Z,55.61
2022-11-16T18:36:46.381Z,55.65
2022-11-16T18:39:15.116Z,55.77
2022-11-16T18:41:50.200Z,55.33
2022-11-16T18:44:24.456Z,55.56
2022-11-16T18:46:53.216Z,55.87
2022-11-16T18:49:21.995Z,55.97
2022-11-16T18:51:50.762Z,55.65
2022-11-16T18:54:19.410Z,55.55
2022-11-16T18:56:48.923Z,55.66
2022-11-16T18:59:17.782Z,55.83
2022-11-16T19:01:47.849Z,55.40
2022-11-16T19:04:16.505Z,55.97
2022-11-16T19:06:45.631Z,55.82
2022-11-16T19:09:14.308Z,55.55
2022-11-16T19:11:42.981Z,55.64
2022-11-16T19:14:12.290Z,55.72
2022-11-16T19:16:48.244Z,55.55
2022-11-16T19:19:21.741Z,55.55
2022-11-16T19:21:51.874Z,55.61
2022-11-16T19:24:20.737Z,55.65
2022-11-16T19:26:50.549Z,55.46
2022-11-16T19:29:20.360Z,55.90
2022-11-16T19:31:48.981Z,56.01
2022-11-16T19:34:17.531Z,55.76
2022-11-16T19:36:47.509Z,55.63
2022-11-16T19:39:16.113Z,55.39
2022-11-16T19:41:44.741Z,55.49
2022-11-16T19:44:13.599Z,55.45
2022-11-16T19:46:42.301Z,55.68
2022-11-16T19:49:19.473Z,55.57
2022-11-16T19:51:50.319Z,55.60
2022-11-16T19:54:18.932Z,55.74
2022-11-16T19:56:53.614Z,55.79
2022-11-16T19:59:23.637Z,55.87
2022-11-16T20:01:52.524Z,55.53
2022-11-16T20:04:21.234Z,55.45
2022-11-16T20:06:51.407Z,55.63
2022-11-16T20:09:21.580Z,55.45
2022-11-16T20:11:50.240Z,55.61
2022-11-16T20:14:19.176Z,55.60
2022-11-16T20:16:50.273Z,55.57
2022-11-16T20:19:20.480Z,55.61
2022-11-16T20:21:49.350Z,55.49
2022-11-16T20:24:19.418Z,55.83
2022-11-16T20:26:49.208Z,55.49
2022-11-16T20:29:19.307Z,55.40
2022-11-16T20:31:48.114Z,55.91
2022-11-16T20:34:17.707Z,55.89
2022-11-16T20:36:48.117Z,55.44
2022-11-16T20:39:19.852Z,55.72
2022-11-16T20:41:48.950Z,55.48
2022-11-16T20:44:21.096Z,55.77
2022-11-16T20:46:50.628Z,55.96
2022-11-16T20:49:19.564Z,55.50
2022-11-16T20:51:49.565Z,55.72
2022-11-16T20:54:19.395Z,55.86
2022-11-16T20:56:49.609Z,55.61
2022-11-16T20:59:18.179Z,55.74
2022-11-16T21:01:48.624Z,55.37
2022-11-16T21:04:17.349Z,55.48
2022-11-16T21:06:45.855Z,55.70
2022-11-16T21:09:22.064Z,55.92
2022-11-16T21:12:08.514Z,55.76
2022-11-16T21:14:37.145Z,55.62
2022-11-16T21:17:05.752Z,55.61
2022-11-16T21:19:34.252Z,55.35
2022-11-16T21:22:03.149Z,55.59
2022-11-16T21:24:32.186Z,55.52
2022-11-16T21:27:02.319Z,55.95
2022-11-16T21:29:30.792Z,55.48
2022-11-16T21:31:59.407Z,55.98
2022-11-16T21:34:33.539Z,56.00
2022-11-16T21:37:04.610Z,55.84
2022-11-16T21:39:33.133Z,55.82
2022-11-16T21:42:03.308Z,55.78
2022-11-16T21:44:41.800Z,55.81
2022-11-16T21:47:10.344Z,55.91
2022-11-16T21:49:54.224Z,55.75
2022-11-16T21:52:28.842Z,55.55
2022-11-16T21:55:00.285Z,55.53
2022-11-16T21:57:30.196Z,55.81
2022-11-16T22:00:00.951Z,55.98
2022-11-16T22:02:29.728Z,55.85
2022-11-16T22:05:15.898Z,55.99
2022-11-16T22:07:44.552Z,55.74
2022-11-16T22:10:14.187Z,55.65
2022-11-16T22:12:44.121Z,56.07
2022-11-16T22:15:12.736Z,55.74
2022-11-16T22:17:43.688Z,55.54
2022-11-16T22:20:12.827Z,55.45
2022-11-16T22:22:41.306Z,55.61
2022-11-16T22:25:10.317Z,55.85
2022-11-16T22:28:05.690Z,55.58
2022-11-16T22:30:28.744Z,55.46
2022-11-16T22:32:57.501Z,55.85
2022-11-16T22:35:25.988Z,55.65
2022-11-16T22:37:56.079Z,55.52
2022-11-16T22:40:24.606Z,56.10
2022-11-16T22:42:53.447Z,56.10
2022-11-16T22:45:22.006Z,55.65
2022-11-16T22:47:54.938Z,55.46
2022-11-16T22:50:24.408Z,55.86
2022-11-16T22:52:52.853Z,55.58
2022-11-16T22:55:21.276Z,55.60
2022-11-16T22:57:49.741Z,55.42
2022-11-16T23:00:19.964Z,55.33
2022-11-16T23:02:48.470Z,55.61
2022-11-16T23:05:18.536Z,56.08
2022-11-16T23:07:47.041Z,56.00
2022-11-16T23:10:15.741Z,55.97
2022-11-16T23:13:01.857Z,55.63
2022-11-16T23:15:47.723Z,55.67
2022-11-16T23:18:16.224Z,55.83
2022-11-16T23:21:08.848Z,55.59
2022-11-16T23:24:09.573Z,55.71
2022-11-16T23:26:55.381Z,55.33
2022-11-16T23:29:24.057Z,55.40
2022-11-16T23:31:52.583Z,55.59
2022-11-16T23:34:21.165Z,55.86
2022-11-16T23:36:51.370Z,56.12
2022-11-16T23:39:22.620Z,55.76
2022-11-16T23:42:09.050Z,55.76
2022-11-16T23:44:37.910Z,55.60
2022-11-16T23:47:06.586Z,55.80
2022-11-16T23:49:35.124Z,55.55
2022-11-16T23:52:05.279Z,55.36
2022-11-16T23:54:33.764Z,55.37
2022-11-16T23:57:02.360Z,55.80
2022-11-16T23:59:30.844Z,55.65
